Arriba, Colorado
Current Conditions -  °F | °C
As of 6:55 AM on Friday 24 Oct 2014 (Local Time) from KLIC Reporting Station
Clear Clear  
Wind Chill: 45°   Ceiling: Unl
Heat Index: 47°   Visibility: 10mi
Dew Point: 30°   Wind: 5mph
Humidity: 52%   Direction: 350°N
Pressure: 30.17"   Gusts: NA
Location:  39.29°N, 103.28°W
Report Text: KLIC 241255Z AUTO 35004KT 10SM CLR 08/M01 A3017 RMK AO2 SLP182 T00831011
Loading
Personal Weather Stations






























Interactive Weather Map New forecast layout! Learn more

10-Day Weather Forecast

Advertisements
Track Severe Weather on mobile